sensor_id;sensor_type;location;lat;lon;timestamp;P1;durP1;ratioP1;P2;durP2;ratioP2
21458;SDS011;10891;49.350;19.386;2023-11-22T00:00:19;44.63;;;25.55;;
21458;SDS011;10891;49.350;19.386;2023-11-22T00:02:48;44.55;;;24.00;;
21458;SDS011;10891;49.350;19.386;2023-11-22T00:05:15;45.85;;;24.80;;
21458;SDS011;10891;49.350;19.386;2023-11-22T00:07:42;44.97;;;23.35;;
21458;SDS011;10891;49.350;19.386;2023-11-22T00:10:10;43.22;;;23.08;;
21458;SDS011;10891;49.350;19.386;2023-11-22T00:12:37;46.35;;;23.17;;
21458;SDS011;10891;49.350;19.386;2023-11-22T00:15:04;41.72;;;22.75;;
21458;SDS011;10891;49.350;19.386;2023-11-22T00:17:32;39.40;;;21.48;;
21458;SDS011;10891;49.350;19.386;2023-11-22T00:20:01;40.75;;;21.98;;
21458;SDS011;10891;49.350;19.386;2023-11-22T00:22:30;36.40;;;21.35;;
21458;SDS011;10891;49.350;19.386;2023-11-22T00:24:58;37.47;;;20.63;;
21458;SDS011;10891;49.350;19.386;2023-11-22T00:27:26;37.60;;;20.70;;
21458;SDS011;10891;49.350;19.386;2023-11-22T00:29:54;36.85;;;20.35;;
21458;SDS011;10891;49.350;19.386;2023-11-22T00:32:22;36.58;;;19.63;;
21458;SDS011;10891;49.350;19.386;2023-11-22T00:34:50;32.22;;;18.88;;
21458;SDS011;10891;49.350;19.386;2023-11-22T00:37:19;34.30;;;17.98;;
21458;SDS011;10891;49.350;19.386;2023-11-22T00:39:46;34.15;;;18.65;;
21458;SDS011;10891;49.350;19.386;2023-11-22T00:42:13;32.92;;;18.25;;
21458;SDS011;10891;49.350;19.386;2023-11-22T00:44:41;29.65;;;17.02;;
21458;SDS011;10891;49.350;19.386;2023-11-22T00:47:08;32.13;;;17.55;;
21458;SDS011;10891;49.350;19.386;2023-11-22T00:49:35;29.15;;;16.30;;
21458;SDS011;10891;49.350;19.386;2023-11-22T00:52:02;31.40;;;15.82;;
21458;SDS011;10891;49.350;19.386;2023-11-22T00:54:31;27.15;;;15.20;;
21458;SDS011;10891;49.350;19.386;2023-11-22T00:56:58;27.38;;;15.32;;
21458;SDS011;10891;49.350;19.386;2023-11-22T00:59:26;28.20;;;15.88;;
21458;SDS011;10891;49.350;19.386;2023-11-22T01:01:54;27.30;;;15.50;;
21458;SDS011;10891;49.350;19.386;2023-11-22T01:04:21;25.10;;;14.80;;
21458;SDS011;10891;49.350;19.386;2023-11-22T01:06:48;23.98;;;13.43;;
21458;SDS011;10891;49.350;19.386;2023-11-22T01:09:15;21.83;;;13.13;;
21458;SDS011;10891;49.350;19.386;2023-11-22T01:11:44;22.35;;;13.13;;
21458;SDS011;10891;49.350;19.386;2023-11-22T01:14:12;23.08;;;13.25;;
21458;SDS011;10891;49.350;19.386;2023-11-22T01:16:39;22.92;;;13.15;;
21458;SDS011;10891;49.350;19.386;2023-11-22T01:19:06;23.63;;;12.90;;
21458;SDS011;10891;49.350;19.386;2023-11-22T01:21:34;21.08;;;12.43;;
21458;SDS011;10891;49.350;19.386;2023-11-22T01:24:01;17.27;;;10.98;;
21458;SDS011;10891;49.350;19.386;2023-11-22T01:26:28;22.73;;;12.52;;
21458;SDS011;10891;49.350;19.386;2023-11-22T01:28:57;20.80;;;11.55;;
21458;SDS011;10891;49.350;19.386;2023-11-22T01:31:25;20.13;;;11.32;;
21458;SDS011;10891;49.350;19.386;2023-11-22T01:33:53;18.92;;;11.27;;
21458;SDS011;10891;49.350;19.386;2023-11-22T01:36:20;20.70;;;11.18;;
21458;SDS011;10891;49.350;19.386;2023-11-22T01:38:47;17.10;;;10.50;;
21458;SDS011;10891;49.350;19.386;2023-11-22T01:41:15;19.55;;;10.35;;
21458;SDS011;10891;49.350;19.386;2023-11-22T01:43:42;18.80;;;10.32;;
21458;SDS011;10891;49.350;19.386;2023-11-22T01:46:19;17.50;;;9.43;;
21458;SDS011;10891;49.350;19.386;2023-11-22T01:48:49;18.40;;;10.07;;
21458;SDS011;10891;49.350;19.386;2023-11-22T01:51:17;14.75;;;9.02;;
21458;SDS011;10891;49.350;19.386;2023-11-22T01:53:44;14.32;;;8.70;;
21458;SDS011;10891;49.350;19.386;2023-11-22T01:56:12;14.40;;;8.65;;
21458;SDS011;10891;49.350;19.386;2023-11-22T01:58:39;15.40;;;8.77;;
21458;SDS011;10891;49.350;19.386;2023-11-22T02:01:06;14.07;;;8.02;;
21458;SDS011;10891;49.350;19.386;2023-11-22T02:03:35;14.38;;;8.07;;
21458;SDS011;10891;49.350;19.386;2023-11-22T02:06:02;16.33;;;8.25;;
21458;SDS011;10891;49.350;19.386;2023-11-22T02:08:30;13.82;;;8.10;;
21458;SDS011;10891;49.350;19.386;2023-11-22T02:10:57;14.75;;;7.88;;
21458;SDS011;10891;49.350;19.386;2023-11-22T02:13:25;13.77;;;7.47;;
21458;SDS011;10891;49.350;19.386;2023-11-22T02:15:52;13.20;;;7.50;;
21458;SDS011;10891;49.350;19.386;2023-11-22T02:18:21;13.32;;;7.63;;
21458;SDS011;10891;49.350;19.386;2023-11-22T02:20:50;13.32;;;6.97;;
21458;SDS011;10891;49.350;19.386;2023-11-22T02:23:19;12.82;;;6.55;;
21458;SDS011;10891;49.350;19.386;2023-11-22T02:25:46;13.65;;;7.13;;
21458;SDS011;10891;49.350;19.386;2023-11-22T02:28:14;10.95;;;6.72;;
21458;SDS011;10891;49.350;19.386;2023-11-22T02:30:41;11.73;;;6.68;;
21458;SDS011;10891;49.350;19.386;2023-11-22T02:33:08;11.50;;;6.82;;
21458;SDS011;10891;49.350;19.386;2023-11-22T02:35:36;10.88;;;5.78;;
21458;SDS011;10891;49.350;19.386;2023-11-22T02:38:03;10.35;;;5.90;;
21458;SDS011;10891;49.350;19.386;2023-11-22T02:40:32;10.05;;;5.95;;
21458;SDS011;10891;49.350;19.386;2023-11-22T02:43:00;12.07;;;6.20;;
21458;SDS011;10891;49.350;19.386;2023-11-22T02:45:30;10.52;;;5.78;;
21458;SDS011;10891;49.350;19.386;2023-11-22T02:47:57;8.45;;;5.40;;
21458;SDS011;10891;49.350;19.386;2023-11-22T02:50:26;11.90;;;5.80;;
21458;SDS011;10891;49.350;19.386;2023-11-22T02:52:53;9.45;;;5.63;;
21458;SDS011;10891;49.350;19.386;2023-11-22T02:55:21;8.48;;;5.03;;
21458;SDS011;10891;49.350;19.386;2023-11-22T02:57:50;9.15;;;5.20;;
21458;SDS011;10891;49.350;19.386;2023-11-22T03:00:17;8.70;;;4.90;;
21458;SDS011;10891;49.350;19.386;2023-11-22T03:02:45;8.25;;;4.80;;
21458;SDS011;10891;49.350;19.386;2023-11-22T03:05:12;7.90;;;4.65;;
21458;SDS011;10891;49.350;19.386;2023-11-22T03:07:40;8.52;;;5.05;;
21458;SDS011;10891;49.350;19.386;2023-11-22T03:10:07;9.57;;;4.70;;
21458;SDS011;10891;49.350;19.386;2023-11-22T03:12:35;7.38;;;4.50;;
21458;SDS011;10891;49.350;19.386;2023-11-22T03:15:04;7.03;;;4.60;;
21458;SDS011;10891;49.350;19.386;2023-11-22T03:17:31;7.38;;;4.18;;
21458;SDS011;10891;49.350;19.386;2023-11-22T03:19:59;6.82;;;4.10;;
21458;SDS011;10891;49.350;19.386;2023-11-22T03:22:27;7.72;;;4.35;;
21458;SDS011;10891;49.350;19.386;2023-11-22T03:24:55;8.02;;;4.80;;
21458;SDS011;10891;49.350;19.386;2023-11-22T03:27:23;7.35;;;3.97;;
21458;SDS011;10891;49.350;19.386;2023-11-22T03:29:51;7.93;;;4.15;;
21458;SDS011;10891;49.350;19.386;2023-11-22T03:32:19;8.52;;;4.20;;
21458;SDS011;10891;49.350;19.386;2023-11-22T03:34:47;5.28;;;3.40;;
21458;SDS011;10891;49.350;19.386;2023-11-22T03:37:14;7.45;;;3.92;;
21458;SDS011;10891;49.350;19.386;2023-11-22T03:39:41;6.57;;;3.92;;
21458;SDS011;10891;49.350;19.386;2023-11-22T03:42:13;6.30;;;3.63;;
21458;SDS011;10891;49.350;19.386;2023-11-22T03:44:41;5.35;;;3.60;;
21458;SDS011;10891;49.350;19.386;2023-11-22T03:47:09;6.50;;;3.60;;
21458;SDS011;10891;49.350;19.386;2023-11-22T03:49:38;4.65;;;3.00;;
21458;SDS011;10891;49.350;19.386;2023-11-22T03:52:05;5.22;;;2.95;;
21458;SDS011;10891;49.350;19.386;2023-11-22T03:54:33;6.47;;;3.30;;
21458;SDS011;10891;49.350;19.386;2023-11-22T03:57:01;4.30;;;2.90;;
21458;SDS011;10891;49.350;19.386;2023-11-22T03:59:28;6.07;;;3.25;;
21458;SDS011;10891;49.350;19.386;2023-11-22T04:01:55;5.00;;;2.97;;
21458;SDS011;10891;49.350;19.386;2023-11-22T04:04:23;5.07;;;3.28;;
21458;SDS011;10891;49.350;19.386;2023-11-22T04:06:51;5.13;;;2.90;;
21458;SDS011;10891;49.350;19.386;2023-11-22T04:09:19;5.30;;;3.10;;
21458;SDS011;10891;49.350;19.386;2023-11-22T04:11:47;4.25;;;2.63;;
21458;SDS011;10891;49.350;19.386;2023-11-22T04:14:14;3.88;;;2.40;;
21458;SDS011;10891;49.350;19.386;2023-11-22T04:16:41;3.70;;;2.20;;
21458;SDS011;10891;49.350;19.386;2023-11-22T04:19:08;3.75;;;2.45;;
21458;SDS011;10891;49.350;19.386;2023-11-22T04:21:36;4.32;;;2.28;;
21458;SDS011;10891;49.350;19.386;2023-11-22T04:24:05;2.92;;;2.10;;
21458;SDS011;10891;49.350;19.386;2023-11-22T04:26:32;4.22;;;2.53;;
21458;SDS011;10891;49.350;19.386;2023-11-22T04:28:59;3.92;;;2.50;;
21458;SDS011;10891;49.350;19.386;2023-11-22T04:31:26;4.50;;;2.50;;
21458;SDS011;10891;49.350;19.386;2023-11-22T04:33:53;4.32;;;2.30;;
21458;SDS011;10891;49.350;19.386;2023-11-22T04:36:22;3.90;;;2.17;;
21458;SDS011;10891;49.350;19.386;2023-11-22T04:38:50;4.68;;;2.40;;
21458;SDS011;10891;49.350;19.386;2023-11-22T04:41:18;3.25;;;2.15;;
21458;SDS011;10891;49.350;19.386;2023-11-22T04:43:45;3.35;;;2.08;;
21458;SDS011;10891;49.350;19.386;2023-11-22T04:46:12;3.72;;;2.20;;
21458;SDS011;10891;49.350;19.386;2023-11-22T04:48:39;3.20;;;2.00;;
21458;SDS011;10891;49.350;19.386;2023-11-22T04:51:10;3.25;;;1.92;;
21458;SDS011;10891;49.350;19.386;2023-11-22T04:53:37;3.25;;;2.20;;
21458;SDS011;10891;49.350;19.386;2023-11-22T04:56:04;2.95;;;1.90;;
21458;SDS011;10891;49.350;19.386;2023-11-22T04:58:33;4.20;;;2.47;;
21458;SDS011;10891;49.350;19.386;2023-11-22T05:01:00;2.45;;;1.60;;
21458;SDS011;10891;49.350;19.386;2023-11-22T05:03:28;3.28;;;2.15;;
21458;SDS011;10891;49.350;19.386;2023-11-22T05:05:55;3.47;;;2.10;;
21458;SDS011;10891;49.350;19.386;2023-11-22T05:08:22;2.83;;;1.95;;
21458;SDS011;10891;49.350;19.386;2023-11-22T05:10:50;3.20;;;1.90;;
21458;SDS011;10891;49.350;19.386;2023-11-22T05:13:17;3.05;;;2.08;;
21458;SDS011;10891;49.350;19.386;2023-11-22T05:15:46;3.58;;;1.95;;
21458;SDS011;10891;49.350;19.386;2023-11-22T05:18:13;3.10;;;2.00;;
21458;SDS011;10891;49.350;19.386;2023-11-22T05:20:40;2.42;;;1.50;;
21458;SDS011;10891;49.350;19.386;2023-11-22T05:23:07;2.95;;;2.05;;
21458;SDS011;10891;49.350;19.386;2023-11-22T05:25:34;2.85;;;2.00;;
21458;SDS011;10891;49.350;19.386;2023-11-22T05:28:01;3.80;;;2.40;;
21458;SDS011;10891;49.350;19.386;2023-11-22T05:30:29;2.85;;;2.00;;
21458;SDS011;10891;49.350;19.386;2023-11-22T05:32:57;4.68;;;1.92;;
21458;SDS011;10891;49.350;19.386;2023-11-22T05:35:24;2.72;;;2.00;;
21458;SDS011;10891;49.350;19.386;2023-11-22T05:37:52;3.13;;;2.25;;
21458;SDS011;10891;49.350;19.386;2023-11-22T05:40:19;3.33;;;2.22;;
21458;SDS011;10891;49.350;19.386;2023-11-22T05:42:46;2.83;;;2.20;;
21458;SDS011;10891;49.350;19.386;2023-11-22T05:45:14;3.78;;;2.42;;
21458;SDS011;10891;49.350;19.386;2023-11-22T05:47:41;4.43;;;3.00;;
21458;SDS011;10891;49.350;19.386;2023-11-22T05:50:10;4.20;;;3.03;;
21458;SDS011;10891;49.350;19.386;2023-11-22T05:52:38;4.57;;;2.70;;
21458;SDS011;10891;49.350;19.386;2023-11-22T05:55:06;4.07;;;3.03;;
21458;SDS011;10891;49.350;19.386;2023-11-22T05:57:34;4.95;;;3.00;;
21458;SDS011;10891;49.350;19.386;2023-11-22T06:00:01;3.63;;;2.47;;
21458;SDS011;10891;49.350;19.386;2023-11-22T06:02:29;3.13;;;2.45;;
21458;SDS011;10891;49.350;19.386;2023-11-22T06:04:56;3.67;;;2.50;;
21458;SDS011;10891;49.350;19.386;2023-11-22T06:07:24;4.13;;;2.80;;
21458;SDS011;10891;49.350;19.386;2023-11-22T06:09:52;4.22;;;2.80;;
21458;SDS011;10891;49.350;19.386;2023-11-22T06:12:20;5.47;;;3.22;;
21458;SDS011;10891;49.350;19.386;2023-11-22T06:14:47;3.95;;;2.67;;
21458;SDS011;10891;49.350;19.386;2023-11-22T06:17:14;9.93;;;3.65;;
21458;SDS011;10891;49.350;19.386;2023-11-22T06:19:41;3.65;;;2.65;;
21458;SDS011;10891;49.350;19.386;2023-11-22T06:22:08;6.65;;;3.33;;
21458;SDS011;10891;49.350;19.386;2023-11-22T06:24:37;4.57;;;3.20;;
21458;SDS011;10891;49.350;19.386;2023-11-22T06:27:04;7.35;;;3.38;;
21458;SDS011;10891;49.350;19.386;2023-11-22T06:29:31;7.00;;;3.10;;
21458;SDS011;10891;49.350;19.386;2023-11-22T06:31:58;8.27;;;3.00;;
21458;SDS011;10891;49.350;19.386;2023-11-22T06:34:26;7.25;;;3.35;;
21458;SDS011;10891;49.350;19.386;2023-11-22T06:36:53;5.50;;;3.22;;
21458;SDS011;10891;49.350;19.386;2023-11-22T06:39:21;5.20;;;3.42;;
21458;SDS011;10891;49.350;19.386;2023-11-22T06:41:52;5.13;;;3.40;;
21458;SDS011;10891;49.350;19.386;2023-11-22T06:44:19;5.13;;;3.33;;
21458;SDS011;10891;49.350;19.386;2023-11-22T06:46:48;4.97;;;3.20;;
21458;SDS011;10891;49.350;19.386;2023-11-22T06:49:15;4.25;;;2.95;;
21458;SDS011;10891;49.350;19.386;2023-11-22T06:51:42;6.10;;;3.05;;
21458;SDS011;10891;49.350;19.386;2023-11-22T06:54:09;4.90;;;3.50;;
21458;SDS011;10891;49.350;19.386;2023-11-22T06:56:36;5.05;;;3.00;;
21458;SDS011;10891;49.350;19.386;2023-11-22T06:59:05;4.68;;;3.45;;
21458;SDS011;10891;49.350;19.386;2023-11-22T07:01:32;4.13;;;3.15;;
21458;SDS011;10891;49.350;19.386;2023-11-22T07:03:59;4.78;;;3.17;;
21458;SDS011;10891;49.350;19.386;2023-11-22T07:06:29;4.60;;;3.22;;
21458;SDS011;10891;49.350;19.386;2023-11-22T07:08:57;5.18;;;3.67;;
21458;SDS011;10891;49.350;19.386;2023-11-22T07:11:25;4.25;;;2.80;;
21458;SDS011;10891;49.350;19.386;2023-11-22T07:13:56;5.18;;;2.92;;
21458;SDS011;10891;49.350;19.386;2023-11-22T07:16:25;4.00;;;3.10;;
21458;SDS011;10891;49.350;19.386;2023-11-22T07:18:52;4.32;;;3.30;;
21458;SDS011;10891;49.350;19.386;2023-11-22T07:21:19;5.93;;;3.67;;
21458;SDS011;10891;49.350;19.386;2023-11-22T07:23:46;6.57;;;3.55;;
21458;SDS011;10891;49.350;19.386;2023-11-22T07:26:14;8.38;;;3.50;;
21458;SDS011;10891;49.350;19.386;2023-11-22T07:28:41;5.47;;;3.47;;
21458;SDS011;10891;49.350;19.386;2023-11-22T07:31:08;7.97;;;3.50;;
21458;SDS011;10891;49.350;19.386;2023-11-22T07:33:37;5.15;;;3.08;;
21458;SDS011;10891;49.350;19.386;2023-11-22T07:36:05;7.10;;;3.28;;
21458;SDS011;10891;49.350;19.386;2023-11-22T07:38:32;7.60;;;3.05;;
21458;SDS011;10891;49.350;19.386;2023-11-22T07:41:00;6.57;;;2.95;;
21458;SDS011;10891;49.350;19.386;2023-11-22T07:43:27;4.28;;;3.10;;
21458;SDS011;10891;49.350;19.386;2023-11-22T07:45:54;4.40;;;3.40;;
21458;SDS011;10891;49.350;19.386;2023-11-22T07:48:24;5.78;;;3.67;;
21458;SDS011;10891;49.350;19.386;2023-11-22T07:50:53;5.20;;;3.95;;
21458;SDS011;10891;49.350;19.386;2023-11-22T07:53:21;6.28;;;3.30;;
21458;SDS011;10891;49.350;19.386;2023-11-22T07:55:51;6.88;;;3.22;;
21458;SDS011;10891;49.350;19.386;2023-11-22T07:58:19;5.22;;;3.20;;
21458;SDS011;10891;49.350;19.386;2023-11-22T08:00:46;13.15;;;3.75;;
21458;SDS011;10891;49.350;19.386;2023-11-22T08:03:13;9.98;;;4.20;;
21458;SDS011;10891;49.350;19.386;2023-11-22T08:05:43;15.85;;;4.03;;
21458;SDS011;10891;49.350;19.386;2023-11-22T08:08:14;10.05;;;3.65;;
21458;SDS011;10891;49.350;19.386;2023-11-22T08:10:41;10.57;;;3.60;;
21458;SDS011;10891;49.350;19.386;2023-11-22T08:13:09;6.90;;;3.63;;
21458;SDS011;10891;49.350;19.386;2023-11-22T08:15:36;11.45;;;3.67;;
21458;SDS011;10891;49.350;19.386;2023-11-22T08:18:03;8.77;;;3.80;;
21458;SDS011;10891;49.350;19.386;2023-11-22T08:20:30;9.73;;;3.40;;
21458;SDS011;10891;49.350;19.386;2023-11-22T08:22:58;14.25;;;3.70;;
21458;SDS011;10891;49.350;19.386;2023-11-22T08:25:27;8.57;;;3.63;;
21458;SDS011;10891;49.350;19.386;2023-11-22T08:27:54;9.13;;;3.97;;
21458;SDS011;10891;49.350;19.386;2023-11-22T08:30:21;8.77;;;3.75;;
21458;SDS011;10891;49.350;19.386;2023-11-22T08:32:48;10.88;;;3.90;;
21458;SDS011;10891;49.350;19.386;2023-11-22T08:35:18;8.93;;;4.07;;
21458;SDS011;10891;49.350;19.386;2023-11-22T08:37:47;13.82;;;4.28;;
21458;SDS011;10891;49.350;19.386;2023-11-22T08:40:15;8.32;;;3.85;;
21458;SDS011;10891;49.350;19.386;2023-11-22T08:42:46;9.35;;;3.40;;
21458;SDS011;10891;49.350;19.386;2023-11-22T08:45:14;6.53;;;3.22;;
21458;SDS011;10891;49.350;19.386;2023-11-22T08:47:41;5.85;;;3.10;;
21458;SDS011;10891;49.350;19.386;2023-11-22T08:50:08;4.13;;;3.25;;
21458;SDS011;10891;49.350;19.386;2023-11-22T08:52:37;8.05;;;3.58;;
21458;SDS011;10891;49.350;19.386;2023-11-22T08:55:05;7.78;;;3.40;;
21458;SDS011;10891;49.350;19.386;2023-11-22T08:57:34;8.30;;;3.58;;
21458;SDS011;10891;49.350;19.386;2023-11-22T09:00:04;7.63;;;3.35;;
21458;SDS011;10891;49.350;19.386;2023-11-22T09:02:33;5.97;;;3.67;;
21458;SDS011;10891;49.350;19.386;2023-11-22T09:05:01;5.50;;;3.10;;
21458;SDS011;10891;49.350;19.386;2023-11-22T09:07:30;4.40;;;3.08;;
21458;SDS011;10891;49.350;19.386;2023-11-22T09:09:58;6.57;;;3.50;;
21458;SDS011;10891;49.350;19.386;2023-11-22T09:12:25;5.35;;;3.03;;
21458;SDS011;10891;49.350;19.386;2023-11-22T09:14:52;9.88;;;3.63;;
21458;SDS011;10891;49.350;19.386;2023-11-22T09:17:21;7.20;;;3.38;;
21458;SDS011;10891;49.350;19.386;2023-11-22T09:19:48;6.72;;;3.53;;
21458;SDS011;10891;49.350;19.386;2023-11-22T09:22:16;4.03;;;3.35;;
21458;SDS011;10891;49.350;19.386;2023-11-22T09:24:43;6.57;;;3.33;;
21458;SDS011;10891;49.350;19.386;2023-11-22T09:27:10;3.85;;;2.95;;
21458;SDS011;10891;49.350;19.386;2023-11-22T09:29:43;5.97;;;3.22;;
21458;SDS011;10891;49.350;19.386;2023-11-22T09:32:10;7.68;;;3.38;;
21458;SDS011;10891;49.350;19.386;2023-11-22T09:34:39;7.70;;;3.67;;
21458;SDS011;10891;49.350;19.386;2023-11-22T09:37:09;5.68;;;3.50;;
21458;SDS011;10891;49.350;19.386;2023-11-22T09:39:36;13.10;;;6.85;;
21458;SDS011;10891;49.350;19.386;2023-11-22T09:42:04;14.98;;;6.60;;
21458;SDS011;10891;49.350;19.386;2023-11-22T09:44:31;10.80;;;6.57;;
21458;SDS011;10891;49.350;19.386;2023-11-22T09:46:59;11.00;;;7.00;;
21458;SDS011;10891;49.350;19.386;2023-11-22T09:49:26;10.52;;;6.18;;
21458;SDS011;10891;49.350;19.386;2023-11-22T09:51:57;10.02;;;6.25;;
21458;SDS011;10891;49.350;19.386;2023-11-22T09:54:28;9.00;;;5.93;;
21458;SDS011;10891;49.350;19.386;2023-11-22T09:56:56;9.60;;;5.97;;
21458;SDS011;10891;49.350;19.386;2023-11-22T09:59:26;9.25;;;5.57;;
21458;SDS011;10891;49.350;19.386;2023-11-22T10:01:54;12.43;;;5.30;;
21458;SDS011;10891;49.350;19.386;2023-11-22T10:04:21;15.98;;;5.30;;
21458;SDS011;10891;49.350;19.386;2023-11-22T10:06:50;7.90;;;5.43;;
21458;SDS011;10891;49.350;19.386;2023-11-22T10:09:19;7.45;;;5.00;;
21458;SDS011;10891;49.350;19.386;2023-11-22T10:11:49;10.20;;;4.88;;
21458;SDS011;10891;49.350;19.386;2023-11-22T10:14:21;7.15;;;4.75;;
21458;SDS011;10891;49.350;19.386;2023-11-22T10:16:57;6.55;;;4.05;;
21458;SDS011;10891;49.350;19.386;2023-11-22T10:19:24;7.60;;;4.85;;
21458;SDS011;10891;49.350;19.386;2023-11-22T10:22:00;34.88;;;17.63;;
21458;SDS011;10891;49.350;19.386;2023-11-22T10:24:31;102.50;;;45.88;;
21458;SDS011;10891;49.350;19.386;2023-11-22T10:26:59;64.05;;;31.30;;
21458;SDS011;10891;49.350;19.386;2023-11-22T10:29:26;37.30;;;19.83;;
21458;SDS011;10891;49.350;19.386;2023-11-22T10:31:53;33.25;;;17.52;;
21458;SDS011;10891;49.350;19.386;2023-11-22T10:34:22;36.83;;;16.95;;
21458;SDS011;10891;49.350;19.386;2023-11-22T10:36:50;26.33;;;14.30;;
21458;SDS011;10891;49.350;19.386;2023-11-22T10:39:20;26.42;;;11.90;;
21458;SDS011;10891;49.350;19.386;2023-11-22T10:41:49;26.48;;;12.55;;
21458;SDS011;10891;49.350;19.386;2023-11-22T10:44:18;17.58;;;8.95;;
21458;SDS011;10891;49.350;19.386;2023-11-22T10:46:47;20.67;;;10.57;;
21458;SDS011;10891;49.350;19.386;2023-11-22T10:49:16;24.17;;;12.15;;
21458;SDS011;10891;49.350;19.386;2023-11-22T10:51:43;21.63;;;10.80;;
21458;SDS011;10891;49.350;19.386;2023-11-22T10:54:11;21.70;;;11.50;;
21458;SDS011;10891;49.350;19.386;2023-11-22T10:56:39;23.90;;;9.85;;
21458;SDS011;10891;49.350;19.386;2023-11-22T10:59:11;18.50;;;9.95;;
21458;SDS011;10891;49.350;19.386;2023-11-22T11:01:41;19.08;;;9.55;;
21458;SDS011;10891;49.350;19.386;2023-11-22T11:04:11;17.77;;;9.43;;
21458;SDS011;10891;49.350;19.386;2023-11-22T11:06:42;18.02;;;9.48;;
21458;SDS011;10891;49.350;19.386;2023-11-22T11:09:11;17.98;;;9.38;;
21458;SDS011;10891;49.350;19.386;2023-11-22T11:11:40;15.25;;;8.23;;
21458;SDS011;10891;49.350;19.386;2023-11-22T11:14:10;15.70;;;8.52;;
21458;SDS011;10891;49.350;19.386;2023-11-22T11:16:38;14.88;;;8.85;;
21458;SDS011;10891;49.350;19.386;2023-11-22T11:19:12;18.08;;;8.80;;
21458;SDS011;10891;49.350;19.386;2023-11-22T11:21:40;18.30;;;9.18;;
21458;SDS011;10891;49.350;19.386;2023-11-22T11:24:08;17.70;;;8.93;;
21458;SDS011;10891;49.350;19.386;2023-11-22T11:26:35;16.23;;;8.38;;
21458;SDS011;10891;49.350;19.386;2023-11-22T11:29:02;14.85;;;8.23;;
21458;SDS011;10891;49.350;19.386;2023-11-22T11:31:33;13.20;;;8.05;;
21458;SDS011;10891;49.350;19.386;2023-11-22T11:34:01;16.60;;;8.30;;
21458;SDS011;10891;49.350;19.386;2023-11-22T11:36:28;13.70;;;7.85;;
21458;SDS011;10891;49.350;19.386;2023-11-22T11:38:57;14.18;;;8.05;;
21458;SDS011;10891;49.350;19.386;2023-11-22T11:41:26;12.93;;;8.23;;
21458;SDS011;10891;49.350;19.386;2023-11-22T11:43:53;15.57;;;8.60;;
21458;SDS011;10891;49.350;19.386;2023-11-22T11:46:21;13.77;;;7.55;;
21458;SDS011;10891;49.350;19.386;2023-11-22T11:48:50;12.30;;;7.90;;
21458;SDS011;10891;49.350;19.386;2023-11-22T11:51:17;15.00;;;8.70;;
21458;SDS011;10891;49.350;19.386;2023-11-22T11:53:45;13.50;;;7.60;;
21458;SDS011;10891;49.350;19.386;2023-11-22T11:56:13;11.98;;;7.45;;
21458;SDS011;10891;49.350;19.386;2023-11-22T11:58:40;14.23;;;8.13;;
21458;SDS011;10891;49.350;19.386;2023-11-22T12:01:11;12.07;;;7.18;;
21458;SDS011;10891;49.350;19.386;2023-11-22T12:03:40;13.05;;;8.55;;
21458;SDS011;10891;49.350;19.386;2023-11-22T12:06:10;14.85;;;9.30;;
21458;SDS011;10891;49.350;19.386;2023-11-22T12:08:37;12.38;;;7.63;;
21458;SDS011;10891;49.350;19.386;2023-11-22T12:11:05;13.07;;;7.63;;
21458;SDS011;10891;49.350;19.386;2023-11-22T12:13:33;11.10;;;7.32;;
21458;SDS011;10891;49.350;19.386;2023-11-22T12:16:03;14.00;;;8.80;;
21458;SDS011;10891;49.350;19.386;2023-11-22T12:18:38;11.38;;;8.05;;
21458;SDS011;10891;49.350;19.386;2023-11-22T12:21:06;17.85;;;11.25;;
21458;SDS011;10891;49.350;19.386;2023-11-22T12:23:34;28.52;;;16.75;;
21458;SDS011;10891;49.350;19.386;2023-11-22T12:26:01;21.15;;;13.15;;
21458;SDS011;10891;49.350;19.386;2023-11-22T12:28:29;16.88;;;11.32;;
21458;SDS011;10891;49.350;19.386;2023-11-22T12:31:06;25.65;;;16.08;;
21458;SDS011;10891;49.350;19.386;2023-11-22T12:33:34;27.80;;;16.55;;
21458;SDS011;10891;49.350;19.386;2023-11-22T12:36:01;18.50;;;11.38;;
21458;SDS011;10891;49.350;19.386;2023-11-22T12:38:29;21.92;;;14.38;;
21458;SDS011;10891;49.350;19.386;2023-11-22T12:40:58;17.48;;;10.85;;
21458;SDS011;10891;49.350;19.386;2023-11-22T12:43:28;21.95;;;12.55;;
21458;SDS011;10891;49.350;19.386;2023-11-22T12:45:59;16.13;;;9.98;;
21458;SDS011;10891;49.350;19.386;2023-11-22T12:48:26;18.00;;;11.00;;
21458;SDS011;10891;49.350;19.386;2023-11-22T12:50:55;17.17;;;10.57;;
21458;SDS011;10891;49.350;19.386;2023-11-22T12:53:22;23.95;;;12.05;;
21458;SDS011;10891;49.350;19.386;2023-11-22T12:55:51;21.25;;;11.77;;
21458;SDS011;10891;49.350;19.386;2023-11-22T12:58:21;19.83;;;10.32;;
21458;SDS011;10891;49.350;19.386;2023-11-22T13:00:49;18.63;;;11.32;;
21458;SDS011;10891;49.350;19.386;2023-11-22T13:03:16;24.38;;;13.45;;
21458;SDS011;10891;49.350;19.386;2023-11-22T13:05:44;24.52;;;11.55;;
21458;SDS011;10891;49.350;19.386;2023-11-22T13:08:10;18.17;;;9.82;;
21458;SDS011;10891;49.350;19.386;2023-11-22T13:10:38;16.40;;;9.90;;
21458;SDS011;10891;49.350;19.386;2023-11-22T13:13:05;18.33;;;10.65;;
21458;SDS011;10891;49.350;19.386;2023-11-22T13:15:36;18.35;;;10.60;;
21458;SDS011;10891;49.350;19.386;2023-11-22T13:18:03;19.65;;;11.65;;
21458;SDS011;10891;49.350;19.386;2023-11-22T13:20:31;25.35;;;14.20;;
21458;SDS011;10891;49.350;19.386;2023-11-22T13:22:58;41.65;;;22.75;;
21458;SDS011;10891;49.350;19.386;2023-11-22T13:25:26;30.08;;;16.75;;
21458;SDS011;10891;49.350;19.386;2023-11-22T13:27:55;30.33;;;18.90;;
21458;SDS011;10891;49.350;19.386;2023-11-22T13:30:24;36.92;;;22.48;;
21458;SDS011;10891;49.350;19.386;2023-11-22T13:32:53;30.45;;;17.90;;
21458;SDS011;10891;49.350;19.386;2023-11-22T13:35:21;32.63;;;17.15;;
21458;SDS011;10891;49.350;19.386;2023-11-22T13:37:49;31.85;;;16.58;;
21458;SDS011;10891;49.350;19.386;2023-11-22T13:40:17;27.83;;;16.83;;
21458;SDS011;10891;49.350;19.386;2023-11-22T13:42:47;25.00;;;13.13;;
21458;SDS011;10891;49.350;19.386;2023-11-22T13:45:15;25.98;;;12.93;;
21458;SDS011;10891;49.350;19.386;2023-11-22T13:47:43;20.92;;;12.00;;
21458;SDS011;10891;49.350;19.386;2023-11-22T13:50:13;37.08;;;18.52;;
21458;SDS011;10891;49.350;19.386;2023-11-22T13:52:43;30.85;;;16.85;;
21458;SDS011;10891;49.350;19.386;2023-11-22T13:55:11;26.63;;;14.40;;
21458;SDS011;10891;49.350;19.386;2023-11-22T13:57:39;25.95;;;13.98;;
21458;SDS011;10891;49.350;19.386;2023-11-22T14:00:07;25.83;;;14.27;;
21458;SDS011;10891;49.350;19.386;2023-11-22T14:02:37;25.20;;;13.30;;
21458;SDS011;10891;49.350;19.386;2023-11-22T14:05:05;23.80;;;13.05;;
21458;SDS011;10891;49.350;19.386;2023-11-22T14:07:35;28.42;;;17.38;;
21458;SDS011;10891;49.350;19.386;2023-11-22T14:10:02;22.60;;;13.27;;
21458;SDS011;10891;49.350;19.386;2023-11-22T14:12:30;23.20;;;13.15;;
21458;SDS011;10891;49.350;19.386;2023-11-22T14:14:57;23.92;;;13.50;;
21458;SDS011;10891;49.350;19.386;2023-11-22T14:17:24;21.05;;;12.90;;
21458;SDS011;10891;49.350;19.386;2023-11-22T14:19:51;21.77;;;12.55;;
21458;SDS011;10891;49.350;19.386;2023-11-22T14:22:19;19.98;;;11.48;;
21458;SDS011;10891;49.350;19.386;2023-11-22T14:24:48;21.05;;;12.70;;
21458;SDS011;10891;49.350;19.386;2023-11-22T14:27:15;18.50;;;12.18;;